Terminal Aerodrome Forecast
Issued by NWS

Home | Current Version | Previous Version | Text Only | Print | Product List | Glossary Off
Versions: 1 2 3 4 5 6 7 8 9 10 11 12 13 14

127
FTUS42 KMHX 182351
TAFOAJ
TAF
KOAJ 182351Z 1900/1924 20008KT P6SM SKC
     FM190200 21010KT P6SM FEW250 WS020/25040KT
     FM190900 21010KT P6SM FEW250
     FM191400 25013G25KT P6SM BKN050
     FM191900 30018G27KT P6SM SCT050
      AMD LTD TO CLD VIS AND WIND=

USA.gov is the U.S. government's official web portal to all federal, state and local government web resources and services.